Latest Weather Observations for Julia Creek

IDQ60801

Issued at 8:02 pm EST Friday 26 August 2016 (issued every 30 minutes, with the page automatically refreshed every 10 minutes)

About weather observations | Map of weather stations | Latest weather observations for QLD | Other Formats
Station Details ID: 029058 Name: JULIA CREEK AIRPORT Lat: -20.67 Lon: 141.72 Height: 122.5 m
Data from the previous 72 hours. | See also: Recent months at Julia Creek
Date/Time
EST
Temp
°C
App
Temp
°C
Dew
Point
°C
Rel
Hum
%
Delta-T
°C
Wind Press
QNH
hPa
Press
MSL
hPa
Rain since
9am
mm
Dir  Spd
km/h
Gust
km/h
Spd
kts
Gust
kts
26/08:00pm 11.7 8.1 4.9 63 3.1 SE 13 17 7 9 1020.3 1020.0 0.0
26/07:30pm 14.1 10.3 3.8 50 4.7 SE 13 15 7 8 1020.0 1019.7 0.0
26/07:00pm 15.9 11.6 3.0 42 5.9 SSE 15 19 8 10 1019.6 1019.3 0.0
26/06:30pm 17.7 12.4 1.7 34 7.2 SSE 19 24 10 13 1019.4 1019.1 0.0
26/06:00pm 19.6 14.2 1.1 29 8.4 SSE 19 28 10 15 1019.1 1018.8 0.0
26/05:30pm 20.9 14.5 1.2 27 9.0 SSE 24 32 13 17 1018.5 1018.2 0.0
26/05:00pm 21.5 14.3 0.7 25 9.5 SSE 28 41 15 22 1018.2 1017.9 0.0
26/04:30pm 21.9 14.8 1.6 26 9.5 SSE 28 39 15 21 1018.1 1017.8 0.0
26/04:00pm 22.5 17.0 2.1 26 9.6 SE 20 33 11 18 1018.0 1017.7 0.0
26/03:30pm 22.5 15.9 2.1 26 9.6 SE 26 33 14 18 1018.0 1017.7 0.0
26/03:00pm 23.1 16.2 2.6 26 9.8 SSE 28 39 15 21 1018.0 1017.7 0.0
26/02:30pm 22.3 15.3 1.9 26 9.6 SSE 28 39 15 21 1018.2 1017.9 0.0
26/02:00pm 22.4 15.3 1.4 25 9.8 SSE 28 41 15 22 1018.5 1018.2 0.0
26/01:30pm 22.1 16.0 2.8 28 9.2 SSE 24 35 13 19 1019.0 1018.7 0.0
26/01:00pm 21.5 14.9 2.2 28 9.0 SE 26 35 14 19 1019.4 1019.1 0.0
26/12:30pm 21.0 14.1 2.8 30 8.6 SSE 28 39 15 21 1020.1 1019.8 0.0
26/12:00pm 20.6 14.1 2.9 31 8.3 SE 26 37 14 20 1020.4 1020.1 0.0
26/11:30am 20.4 14.0 3.2 32 8.2 SE 26 41 14 22 1020.5 1020.2 0.0
26/11:00am 19.8 13.1 3.5 34 7.7 SE 28 37 15 20 1020.9 1020.6 0.0
26/10:30am 19.0 11.8 2.8 34 7.6 SE 30 37 16 20 1021.2 1020.9 0.0
26/10:00am 18.5 11.8 3.9 38 6.9 SSE 28 41 15 22 1021.4 1021.1 0.0
26/09:30am 17.5 11.8 4.8 43 6.1 SSE 24 30 13 16 1021.5 1021.2 0.0
26/09:00am 16.5 11.4 5.8 49 5.2 SE 22 32 12 17 1021.4 1021.1 0.0
26/08:30am 14.3 10.2 6.4 59 3.8 SSE 17 22 9 12 1021.1 1020.8 0.0
26/08:00am 11.7 8.6 7.4 75 2.1 SSE 13 15 7 8 1020.9 1020.6 0.0
26/07:30am 8.7 5.8 6.7 87 0.9 SSE 11 13 6 7 1020.6 1020.3 0.0
26/07:00am 6.8 3.7 5.6 92 0.5 SSE 11 11 6 6 1020.3 1020.0 0.0
26/06:30am 7.1 4.4 5.6 90 0.7 SSE 9 11 5 6 1019.9 1019.6 0.0
26/06:00am 7.9 4.5 6.0 88 0.9 SSE 13 13 7 7 1019.7 1019.4 0.0
26/05:30am 7.8 4.8 5.9 88 0.9 S 11 13 6 7 1019.3 1019.0 0.0
26/05:00am 8.1 5.1 6.1 87 0.9 S 11 15 6 8 1019.0 1018.7 0.0
26/04:30am 8.6 5.3 6.2 85 1.1 S 13 15 7 8 1018.8 1018.5 0.0
26/04:00am 9.1 5.8 6.5 84 1.2 S 13 15 7 8 1018.8 1018.5 0.0
26/03:30am 9.1 5.8 6.5 84 1.2 S 13 15 7 8 1018.7 1018.4 0.0
26/03:00am 9.4 6.2 6.7 83 1.3 S 13 15 7 8 1018.6 1018.3 0.0
26/02:30am 9.7 6.2 7.1 84 1.2 S 15 17 8 9 1018.6 1018.3 0.0
26/02:00am 9.0 5.9 7.3 89 0.8 SSW 13 17 7 9 1018.5 1018.2 0.0
26/01:30am 9.1 6.0 7.1 87 0.9 SSW 13 13 7 7 1018.3 1018.0 0.0
26/01:00am 9.8 6.7 7.4 85 1.1 SSW 13 15 7 8 1018.4 1018.1 0.0
26/12:30am 10.2 7.1 7.4 83 1.3 S 13 13 7 7 1018.4 1018.1 0.0
26/12:00am 10.7 7.7 7.8 82 1.4 S 13 15 7 8 1018.5 1018.2 0.0
 
Date/Time
EST
Temp
°C
App
Temp
°C
Dew
Point
°C
Rel
Hum
%
Delta-T
°C
Wind Press
QNH
hPa
Press
MSL
hPa
Rain since
9am
mm
Dir  Spd
km/h
Gust
km/h
Spd
kts
Gust
kts
25/11:30pm 11.2 8.2 7.5 78 1.8 S 13 15 7 8 1018.4 1018.1 0.0
25/11:00pm 12.2 8.4 7.7 74 2.2 S 17 20 9 11 1018.3 1018.0 0.0
25/10:30pm 12.0 9.0 7.7 75 2.1 S 13 17 7 9 1018.0 1017.7 0.0
25/10:00pm 12.9 9.5 7.8 71 2.5 S 15 19 8 10 1017.7 1017.4 0.0
25/09:30pm 12.7 9.4 8.0 73 2.3 S 15 17 8 9 1017.3 1017.0 0.0
25/09:00pm 12.7 9.8 8.2 74 2.2 S 13 17 7 9 1017.1 1016.8 0.0
25/08:30pm 12.7 9.9 8.4 75 2.1 S 13 15 7 8 1016.8 1016.5 0.0
25/08:00pm 13.3 10.5 8.6 73 2.4 S 13 15 7 8 1016.4 1016.1 0.0
25/07:30pm 13.9 11.2 8.9 72 2.5 S 13 15 7 8 1016.0 1015.6 0.0
25/07:00pm 15.0 12.2 8.7 66 3.2 S 13 13 7 7 1015.6 1015.2 0.0
25/06:30pm 16.5 14.1 8.7 60 4.0 S 11 13 6 7 1015.2 1014.8 0.0
25/06:00pm 19.3 16.5 7.1 45 6.2 S 11 17 6 9 1015.0 1014.6 0.0
25/05:30pm 20.5 17.2 6.5 40 7.1 S 13 17 7 9 1014.8 1014.4 0.0
25/05:00pm 20.9 17.5 6.1 38 7.5 SSE 13 20 7 11 1014.5 1014.1 0.0
25/04:30pm 21.3 18.1 6.8 39 7.4 S 13 20 7 11 1014.2 1013.8 0.0
25/04:00pm 21.5 18.1 7.7 41 7.2 SSE 15 22 8 12 1014.1 1013.7 0.0
25/03:30pm 21.1 17.6 7.3 41 7.1 S 15 30 8 16 1014.1 1013.7 0.0
25/03:00pm 21.5 17.9 8.4 43 6.9 S 17 24 9 13 1014.2 1013.8 0.0
25/02:30pm 21.3 18.5 8.6 44 6.7 S 13 20 7 11 1014.7 1014.3 0.0
25/02:00pm 21.4 18.9 9.6 47 6.4 S 13 24 7 13 1015.0 1014.6 0.0
25/01:30pm 21.1 18.3 10.0 49 6.0 S 15 24 8 13 1015.3 1014.9 0.0
25/01:00pm 20.4 18.0 10.2 52 5.5 SSE 13 20 7 11 1015.6 1015.2 0.0
25/12:30pm 19.5 16.4 8.8 50 5.6 SSE 15 24 8 13 1016.0 1015.6 0.0
25/12:00pm 19.5 15.9 10.0 54 5.1 SSE 19 28 10 15 1016.6 1016.3 0.0
25/11:30am 19.4 15.8 9.9 54 5.1 SSE 19 26 10 14 1017.0 1016.7 0.0
25/11:00am 18.6 14.8 9.7 56 4.7 SSE 20 30 11 16 1017.4 1017.1 0.0
25/10:30am 18.2 13.6 9.5 57 4.6 SSE 24 35 13 19 1017.6 1017.3 0.0
25/10:00am 17.4 12.3 9.3 59 4.2 SSE 26 33 14 18 1017.7 1017.4 0.0
25/09:30am 16.3 11.3 9.5 64 3.6 SSE 26 33 14 18 1017.6 1017.3 0.0
25/09:00am 15.0 11.0 10.4 74 2.4 SSE 22 28 12 15 1017.4 1017.1 0.6
25/08:30am 13.6 10.0 10.6 82 1.6 SSE 20 28 11 15 1017.3 1017.0 0.6
25/08:00am 12.3 9.1 10.0 86 1.2 S 17 20 9 11 1017.1 1016.8 0.6
25/07:30am 10.7 8.1 9.5 92 0.6 S 13 17 7 9 1016.7 1016.4 0.6
25/07:00am 9.8 7.5 8.9 94 0.4 S 11 13 6 7 1016.4 1016.1 0.6
25/06:30am 10.1 7.9 9.2 94 0.4 S 11 15 6 8 1016.2 1015.9 0.6
25/06:00am 10.1 7.9 9.2 94 0.4 S 11 13 6 7 1015.8 1015.4 0.6
25/05:30am 10.5 8.3 9.4 93 0.6 S 11 13 6 7 1015.6 1015.2 0.6
25/05:00am 11.0 8.9 9.9 93 0.6 S 11 15 6 8 1015.6 1015.2 0.6
25/04:30am 11.0 9.7 9.9 93 0.6 S 7 11 4 6 1015.3 1014.9 0.6
25/04:00am 11.2 9.5 10.0 92 0.6 S 9 13 5 7 1015.1 1014.7 0.6
25/03:30am 11.5 9.5 10.1 91 0.7 S 11 13 6 7 1015.1 1014.7 0.6
25/03:00am 11.9 9.6 10.3 90 0.8 S 13 17 7 9 1015.2 1014.8 0.6
25/02:30am 12.3 9.7 10.7 90 0.8 S 15 17 8 9 1014.9 1014.5 0.6
25/02:00am 12.2 10.3 10.6 90 0.8 S 11 13 6 7 1015.2 1014.8 0.6
25/01:30am 12.6 10.5 11.0 90 0.8 S 13 15 7 8 1014.9 1014.5 0.6
25/01:00am 13.1 11.0 11.3 89 1.0 S 13 15 7 8 1015.5 1015.1 0.6
25/12:30am 13.8 12.0 12.0 89 1.0 S 13 17 7 9 1015.5 1015.1 0.6
25/12:00am 14.1 12.8 12.5 90 0.9 S 11 15 6 8 1015.8 1015.4 0.4
 
Date/Time
EST
Temp
°C
App
Temp
°C
Dew
Point
°C
Rel
Hum
%
Delta-T
°C
Wind Press
QNH
hPa
Press
MSL
hPa
Rain since
9am
mm
Dir  Spd
km/h
Gust
km/h
Spd
kts
Gust
kts
24/11:30pm 14.5 13.4 13.2 92 0.7 SSE 11 15 6 8 1015.4 1015.0 0.4
24/11:00pm 14.5 13.8 13.2 92 0.7 SSE 9 11 5 6 1015.4 1015.0 0.4
24/10:30pm 14.9 14.0 13.6 92 0.7 S 11 13 6 7 1015.5 1015.1 0.4
24/10:00pm 15.4 14.6 13.9 91 0.8 S 11 13 6 7 1015.2 1014.8 0.4
24/09:30pm 15.7 17.0 14.1 90 0.9 CALM 0 9 0 5 1015.0 1014.6 0.4
24/09:00pm 16.5 17.0 14.9 90 0.9 SE 6 7 3 4 1014.9 1014.5 0.4
24/08:30pm 16.4 16.7 14.6 89 1.0 ESE 6 7 3 4 1014.4 1014.0 0.4
24/08:00pm 16.7 17.2 14.9 89 1.0 ESE 6 7 3 4 1014.0 1013.6 0.4
24/07:30pm 17.0 17.2 14.8 87 1.3 SE 7 9 4 5 1013.6 1013.3 0.4
24/07:00pm 17.7 17.5 14.6 82 1.8 SSE 9 13 5 7 1013.3 1013.0 0.4
24/06:30pm 18.7 17.3 14.6 77 2.4 SSE 15 17 8 9 1012.7 1012.4 0.4
24/06:00pm 19.3 18.1 15.0 76 2.5 SSE 15 20 8 11 1012.4 1012.1 0.4
24/05:30pm 19.8 18.2 15.0 74 2.8 SSE 17 24 9 13 1012.3 1012.0 0.4
24/05:00pm 20.1 17.9 14.9 72 3.1 S 20 26 11 14 1011.8 1011.5 0.4
24/04:30pm 20.3 18.5 15.5 74 2.9 SSW 19 24 10 13 1011.3 1011.0 0.4
24/04:00pm 19.6 18.7 15.9 79 2.2 S 15 20 8 11 1011.0 1010.7 0.2
24/03:30pm 19.9 19.4 16.0 78 2.3 S 13 19 7 10 1011.1 1010.8 0.2
24/03:00pm 20.0 18.4 16.0 78 2.4 S 19 24 10 13 1011.1 1010.8 0.0
24/02:30pm 19.7 17.6 16.2 80 2.1 SSW 22 28 12 15 1011.1 1010.8 0.0
24/02:00pm 20.2 18.2 15.6 75 2.7 S 20 26 11 14 1011.4 1011.1 0.0
24/01:30pm 21.0 17.9 15.5 71 3.3 SSW 26 33 14 18 1011.3 1011.0 0.0
24/01:00pm 21.9 19.5 16.4 71 3.4 S 24 32 13 17 1011.2 1010.9 0.0
24/12:30pm 22.2 20.1 17.1 73 3.1 SSW 24 37 13 20 1011.2 1010.9 0.0
24/12:00pm 21.8 19.9 16.7 73 3.1 SSW 22 30 12 16 1011.7 1011.4 0.0
24/11:30am 21.4 18.9 17.0 76 2.7 SSW 26 33 14 18 1011.7 1011.4 0.0
24/11:00am 20.6 18.1 17.0 80 2.2 SSW 26 33 14 18 1012.4 1012.1 0.0
24/10:30am 19.7 17.1 16.9 84 1.7 SSW 26 33 14 18 1012.9 1012.6 0.0
24/10:00am 19.9 17.6 17.5 86 1.5 SSW 26 32 14 17 1013.1 1012.8 0.0
24/09:30am 20.7 19.9 18.5 87 1.4 SSW 20 28 11 15 1012.9 1012.6 0.0
24/09:00am 20.4 19.6 18.5 89 1.2 SSW 20 26 11 14 1012.6 1012.3 18.6
24/08:30am 20.0 20.6 18.5 91 0.9 SSW 13 19 7 10 1012.3 1012.0 18.6
24/08:00am 19.7 20.3 18.5 93 0.8 SSW 13 19 7 10 1011.7 1011.4 18.6
24/07:30am 20.0 20.7 18.8 93 0.8 SW 13 19 7 10 1011.0 1010.7 18.6
24/07:00am 20.5 22.0 19.7 95 0.5 SW 11 15 6 8 1010.4 1010.1 18.2
24/06:30am 20.4 22.8 19.6 95 0.5 WSW 6 9 3 5 1009.8 1009.5 18.2
24/06:00am 20.3 23.8 19.5 95 0.5 CALM 0 0 0 0 1009.3 1009.0 17.6
24/05:30am 20.4 23.9 19.6 95 0.5 CALM 0 0 0 0 1008.9 1008.5 17.2
24/05:00am 20.3 23.7 19.3 94 0.6 CALM 0 0 0 0 1008.8 1008.4 16.8
24/04:30am 20.4 22.1 19.4 94 0.6 WSW 9 11 5 6 1008.4 1008.0 16.8
24/04:00am 20.5 22.5 19.2 92 0.8 N 7 11 4 6 1008.2 1007.8 16.8
24/03:30am 20.7 21.6 19.2 91 1.0 N 13 19 7 10 1007.6 1007.2 16.8
24/03:00am 20.9 20.9 19.0 89 1.2 N 17 30 9 16 1007.6 1007.2 16.8
24/02:30am 20.3 21.6 19.3 94 0.6 NE 11 19 6 10 1007.2 1006.8 15.8
24/02:00am 20.1 20.3 19.3 95 0.5 NE 17 20 9 11 1007.7 1007.3 12.4
24/01:30am 20.1 21.8 19.3 95 0.5 E 9 11 5 6 1008.6 1008.2 9.6
24/01:00am 20.2 22.3 19.4 95 0.5 SSE 7 11 4 6 1009.0 1008.6 7.0
24/12:30am 20.6 22.3 19.4 93 0.8 SSW 9 19 5 10 1009.3 1009.0 6.6
24/12:00am 20.6 21.6 19.4 93 0.8 S 13 19 7 10 1008.8 1008.4 5.2
 
Date/Time
EST
Temp
°C
App
Temp
°C
Dew
Point
°C
Rel
Hum
%
Delta-T
°C
Wind Press
QNH
hPa
Press
MSL
hPa
Rain since
9am
mm
Dir  Spd
km/h
Gust
km/h
Spd
kts
Gust
kts
23/11:30pm 20.6 22.7 19.4 93 0.8 NE 7 11 4 6 1008.6 1008.2 5.0
23/11:00pm 20.8 23.9 19.5 92 0.8 W 2 7 1 4 1009.5 1009.2 4.6
23/10:30pm 20.9 24.3 19.4 91 1.0 CALM 0 7 0 4 1009.6 1009.3 4.0
23/10:00pm 21.1 24.5 19.4 90 1.1 CALM 0 0 0 0 1009.5 1009.2 3.6
23/09:30pm 21.3 24.7 19.4 89 1.2 CALM 0 0 0 0 1009.5 1009.2 3.6
23/09:00pm 21.2 24.8 19.7 91 1.0 CALM 0 0 0 0 1009.3 1009.0 3.6
23/08:30pm 21.2 24.7 19.5 90 1.1 CALM 0 0 0 0 1008.7 1008.3 3.6

Other Formats:

Comma delimited format used in spreadsheet applications
http://www.bom.gov.au/fwo/IDQ60801/IDQ60801.94337.axf

JavaScript Object Notation format (JSON) in row-major order
http://www.bom.gov.au/fwo/IDQ60801/IDQ60801.94337.json